sensor_id;sensor_type;location;lat;lon;timestamp;P1;durP1;ratioP1;P2;durP2;ratioP2
12774;SDS011;6451;42.630;23.382;2022-09-02T00:02:04;17.02;;;15.32;;
12774;SDS011;6451;42.630;23.382;2022-09-02T00:04:32;17.02;;;15.15;;
12774;SDS011;6451;42.630;23.382;2022-09-02T00:06:59;17.90;;;16.20;;
12774;SDS011;6451;42.630;23.382;2022-09-02T00:09:26;18.15;;;16.20;;
12774;SDS011;6451;42.630;23.382;2022-09-02T00:11:53;17.08;;;15.30;;
12774;SDS011;6451;42.630;23.382;2022-09-02T00:14:22;16.40;;;14.68;;
12774;SDS011;6451;42.630;23.382;2022-09-02T00:16:53;16.80;;;15.18;;
12774;SDS011;6451;42.630;23.382;2022-09-02T00:19:21;19.52;;;15.90;;
12774;SDS011;6451;42.630;23.382;2022-09-02T00:21:49;17.25;;;15.38;;
12774;SDS011;6451;42.630;23.382;2022-09-02T00:24:17;17.17;;;15.57;;
12774;SDS011;6451;42.630;23.382;2022-09-02T00:26:44;17.90;;;16.05;;
12774;SDS011;6451;42.630;23.382;2022-09-02T00:29:12;18.25;;;16.58;;
12774;SDS011;6451;42.630;23.382;2022-09-02T00:31:40;18.15;;;16.45;;
12774;SDS011;6451;42.630;23.382;2022-09-02T00:34:09;18.83;;;16.92;;
12774;SDS011;6451;42.630;23.382;2022-09-02T00:36:37;17.77;;;16.05;;
12774;SDS011;6451;42.630;23.382;2022-09-02T00:39:05;18.45;;;16.58;;
12774;SDS011;6451;42.630;23.382;2022-09-02T00:41:34;16.80;;;14.93;;
12774;SDS011;6451;42.630;23.382;2022-09-02T00:44:04;17.33;;;15.65;;
12774;SDS011;6451;42.630;23.382;2022-09-02T00:46:34;16.70;;;14.88;;
12774;SDS011;6451;42.630;23.382;2022-09-02T00:49:04;17.88;;;16.08;;
12774;SDS011;6451;42.630;23.382;2022-09-02T00:51:38;16.92;;;15.18;;
12774;SDS011;6451;42.630;23.382;2022-09-02T00:54:11;16.40;;;14.80;;
12774;SDS011;6451;42.630;23.382;2022-09-02T00:56:40;16.50;;;14.90;;
12774;SDS011;6451;42.630;23.382;2022-09-02T00:59:10;16.98;;;14.90;;
12774;SDS011;6451;42.630;23.382;2022-09-02T01:01:40;18.25;;;15.88;;
12774;SDS011;6451;42.630;23.382;2022-09-02T01:04:07;18.30;;;15.43;;
12774;SDS011;6451;42.630;23.382;2022-09-02T01:06:34;17.58;;;15.90;;
12774;SDS011;6451;42.630;23.382;2022-09-02T01:09:07;18.05;;;16.25;;
12774;SDS011;6451;42.630;23.382;2022-09-02T01:11:39;17.52;;;15.82;;
12774;SDS011;6451;42.630;23.382;2022-09-02T01:14:07;17.63;;;15.75;;
12774;SDS011;6451;42.630;23.382;2022-09-02T01:16:38;18.67;;;16.88;;
12774;SDS011;6451;42.630;23.382;2022-09-02T01:19:10;18.05;;;16.25;;
12774;SDS011;6451;42.630;23.382;2022-09-02T01:21:48;18.90;;;17.05;;
12774;SDS011;6451;42.630;23.382;2022-09-02T01:24:16;19.58;;;16.58;;
12774;SDS011;6451;42.630;23.382;2022-09-02T01:26:46;18.40;;;16.70;;
12774;SDS011;6451;42.630;23.382;2022-09-02T01:29:14;18.55;;;16.75;;
12774;SDS011;6451;42.630;23.382;2022-09-02T01:31:42;18.60;;;16.65;;
12774;SDS011;6451;42.630;23.382;2022-09-02T01:34:09;18.15;;;16.15;;
12774;SDS011;6451;42.630;23.382;2022-09-02T01:36:36;17.98;;;16.27;;
12774;SDS011;6451;42.630;23.382;2022-09-02T01:39:05;16.70;;;14.90;;
12774;SDS011;6451;42.630;23.382;2022-09-02T01:41:32;16.65;;;15.05;;
12774;SDS011;6451;42.630;23.382;2022-09-02T01:43:59;17.05;;;15.25;;
12774;SDS011;6451;42.630;23.382;2022-09-02T01:46:26;16.38;;;12.23;;
12774;SDS011;6451;42.630;23.382;2022-09-02T01:48:53;15.32;;;12.05;;
12774;SDS011;6451;42.630;23.382;2022-09-02T01:51:21;13.00;;;11.80;;
12774;SDS011;6451;42.630;23.382;2022-09-02T01:53:48;13.45;;;12.05;;
12774;SDS011;6451;42.630;23.382;2022-09-02T01:56:16;12.77;;;11.48;;
12774;SDS011;6451;42.630;23.382;2022-09-02T01:58:43;15.25;;;11.35;;
12774;SDS011;6451;42.630;23.382;2022-09-02T02:01:10;11.88;;;10.77;;
12774;SDS011;6451;42.630;23.382;2022-09-02T02:03:37;11.55;;;10.55;;
12774;SDS011;6451;42.630;23.382;2022-09-02T02:06:07;11.68;;;10.48;;
12774;SDS011;6451;42.630;23.382;2022-09-02T02:08:35;11.55;;;10.45;;
12774;SDS011;6451;42.630;23.382;2022-09-02T02:11:02;13.43;;;12.07;;
12774;SDS011;6451;42.630;23.382;2022-09-02T02:13:31;13.82;;;10.82;;
12774;SDS011;6451;42.630;23.382;2022-09-02T02:15:58;14.52;;;11.05;;
12774;SDS011;6451;42.630;23.382;2022-09-02T02:18:25;13.68;;;11.32;;
12774;SDS011;6451;42.630;23.382;2022-09-02T02:20:52;12.98;;;10.50;;
12774;SDS011;6451;42.630;23.382;2022-09-02T02:23:19;12.60;;;11.27;;
12774;SDS011;6451;42.630;23.382;2022-09-02T02:25:48;13.05;;;11.75;;
12774;SDS011;6451;42.630;23.382;2022-09-02T02:28:15;16.40;;;12.63;;
12774;SDS011;6451;42.630;23.382;2022-09-02T02:30:44;15.23;;;13.73;;
12774;SDS011;6451;42.630;23.382;2022-09-02T02:33:10;15.60;;;13.38;;
12774;SDS011;6451;42.630;23.382;2022-09-02T02:35:37;15.73;;;14.05;;
12774;SDS011;6451;42.630;23.382;2022-09-02T02:38:04;15.93;;;14.35;;
12774;SDS011;6451;42.630;23.382;2022-09-02T02:40:31;16.85;;;15.25;;
12774;SDS011;6451;42.630;23.382;2022-09-02T02:42:58;17.48;;;15.50;;
12774;SDS011;6451;42.630;23.382;2022-09-02T02:45:26;17.38;;;15.68;;
12774;SDS011;6451;42.630;23.382;2022-09-02T02:47:55;17.73;;;15.77;;
12774;SDS011;6451;42.630;23.382;2022-09-02T02:50:23;17.73;;;16.13;;
12774;SDS011;6451;42.630;23.382;2022-09-02T02:52:51;18.08;;;15.98;;
12774;SDS011;6451;42.630;23.382;2022-09-02T02:55:21;16.67;;;14.68;;
12774;SDS011;6451;42.630;23.382;2022-09-02T02:57:49;14.02;;;12.75;;
12774;SDS011;6451;42.630;23.382;2022-09-02T03:00:18;12.93;;;11.73;;
12774;SDS011;6451;42.630;23.382;2022-09-02T03:02:48;10.73;;;9.80;;
12774;SDS011;6451;42.630;23.382;2022-09-02T03:05:16;10.40;;;9.30;;
12774;SDS011;6451;42.630;23.382;2022-09-02T03:07:43;9.73;;;8.73;;
12774;SDS011;6451;42.630;23.382;2022-09-02T03:10:10;9.13;;;8.32;;
12774;SDS011;6451;42.630;23.382;2022-09-02T03:12:38;8.73;;;7.95;;
12774;SDS011;6451;42.630;23.382;2022-09-02T03:15:07;8.30;;;7.55;;
12774;SDS011;6451;42.630;23.382;2022-09-02T03:17:35;8.00;;;7.22;;
12774;SDS011;6451;42.630;23.382;2022-09-02T03:20:02;8.18;;;7.40;;
12774;SDS011;6451;42.630;23.382;2022-09-02T03:22:33;8.13;;;7.32;;
12774;SDS011;6451;42.630;23.382;2022-09-02T03:25:03;8.15;;;7.32;;
12774;SDS011;6451;42.630;23.382;2022-09-02T03:27:31;8.45;;;7.53;;
12774;SDS011;6451;42.630;23.382;2022-09-02T03:29:58;8.85;;;8.05;;
12774;SDS011;6451;42.630;23.382;2022-09-02T03:32:25;9.23;;;8.10;;
12774;SDS011;6451;42.630;23.382;2022-09-02T03:34:52;8.65;;;7.85;;
12774;SDS011;6451;42.630;23.382;2022-09-02T03:37:19;9.07;;;8.20;;
12774;SDS011;6451;42.630;23.382;2022-09-02T03:39:47;10.98;;;8.25;;
12774;SDS011;6451;42.630;23.382;2022-09-02T03:42:14;9.82;;;8.82;;
12774;SDS011;6451;42.630;23.382;2022-09-02T03:44:41;9.43;;;8.52;;
12774;SDS011;6451;42.630;23.382;2022-09-02T03:47:08;12.65;;;8.50;;
12774;SDS011;6451;42.630;23.382;2022-09-02T03:49:38;9.18;;;8.48;;
12774;SDS011;6451;42.630;23.382;2022-09-02T03:52:05;8.90;;;8.10;;
12774;SDS011;6451;42.630;23.382;2022-09-02T03:54:32;9.20;;;8.40;;
12774;SDS011;6451;42.630;23.382;2022-09-02T03:57:00;9.13;;;8.38;;
12774;SDS011;6451;42.630;23.382;2022-09-02T03:59:28;8.68;;;7.88;;
12774;SDS011;6451;42.630;23.382;2022-09-02T04:01:55;9.05;;;8.32;;
12774;SDS011;6451;42.630;23.382;2022-09-02T04:04:21;9.15;;;8.43;;
12774;SDS011;6451;42.630;23.382;2022-09-02T04:06:48;9.48;;;8.57;;
12774;SDS011;6451;42.630;23.382;2022-09-02T04:09:15;10.13;;;8.82;;
12774;SDS011;6451;42.630;23.382;2022-09-02T04:11:42;10.20;;;9.23;;
12774;SDS011;6451;42.630;23.382;2022-09-02T04:14:10;10.15;;;9.30;;
12774;SDS011;6451;42.630;23.382;2022-09-02T04:16:37;10.10;;;9.20;;
12774;SDS011;6451;42.630;23.382;2022-09-02T04:19:04;10.38;;;9.38;;
12774;SDS011;6451;42.630;23.382;2022-09-02T04:21:34;10.15;;;9.25;;
12774;SDS011;6451;42.630;23.382;2022-09-02T04:24:02;10.88;;;9.88;;
12774;SDS011;6451;42.630;23.382;2022-09-02T04:26:30;10.70;;;9.60;;
12774;SDS011;6451;42.630;23.382;2022-09-02T04:28:57;11.52;;;10.40;;
12774;SDS011;6451;42.630;23.382;2022-09-02T04:31:25;11.10;;;10.10;;
12774;SDS011;6451;42.630;23.382;2022-09-02T04:33:55;11.13;;;10.13;;
12774;SDS011;6451;42.630;23.382;2022-09-02T04:36:23;12.05;;;10.80;;
12774;SDS011;6451;42.630;23.382;2022-09-02T04:38:51;12.88;;;11.68;;
12774;SDS011;6451;42.630;23.382;2022-09-02T04:41:20;12.20;;;10.98;;
12774;SDS011;6451;42.630;23.382;2022-09-02T04:43:48;11.32;;;10.32;;
12774;SDS011;6451;42.630;23.382;2022-09-02T04:46:16;11.68;;;9.35;;
12774;SDS011;6451;42.630;23.382;2022-09-02T04:48:46;11.73;;;10.40;;
12774;SDS011;6451;42.630;23.382;2022-09-02T04:51:14;11.15;;;10.05;;
12774;SDS011;6451;42.630;23.382;2022-09-02T04:53:43;13.77;;;9.75;;
12774;SDS011;6451;42.630;23.382;2022-09-02T04:56:12;10.85;;;9.65;;
12774;SDS011;6451;42.630;23.382;2022-09-02T04:58:40;12.20;;;9.63;;
12774;SDS011;6451;42.630;23.382;2022-09-02T05:01:09;10.00;;;8.98;;
12774;SDS011;6451;42.630;23.382;2022-09-02T05:03:38;12.18;;;9.57;;
12774;SDS011;6451;42.630;23.382;2022-09-02T05:06:07;10.63;;;9.63;;
12774;SDS011;6451;42.630;23.382;2022-09-02T05:08:37;10.65;;;9.52;;
12774;SDS011;6451;42.630;23.382;2022-09-02T05:11:05;10.75;;;9.60;;
12774;SDS011;6451;42.630;23.382;2022-09-02T05:13:32;10.13;;;9.23;;
12774;SDS011;6451;42.630;23.382;2022-09-02T05:15:59;10.38;;;9.30;;
12774;SDS011;6451;42.630;23.382;2022-09-02T05:18:27;10.35;;;9.15;;
12774;SDS011;6451;42.630;23.382;2022-09-02T05:20:55;10.43;;;9.43;;
12774;SDS011;6451;42.630;23.382;2022-09-02T05:23:23;13.60;;;10.05;;
12774;SDS011;6451;42.630;23.382;2022-09-02T05:25:50;10.30;;;9.40;;
12774;SDS011;6451;42.630;23.382;2022-09-02T05:28:17;12.07;;;9.90;;
12774;SDS011;6451;42.630;23.382;2022-09-02T05:30:44;10.38;;;9.38;;
12774;SDS011;6451;42.630;23.382;2022-09-02T05:33:13;10.32;;;9.32;;
12774;SDS011;6451;42.630;23.382;2022-09-02T05:35:40;10.13;;;9.23;;
12774;SDS011;6451;42.630;23.382;2022-09-02T05:38:13;10.15;;;9.25;;
12774;SDS011;6451;42.630;23.382;2022-09-02T05:40:42;10.60;;;9.32;;
12774;SDS011;6451;42.630;23.382;2022-09-02T05:43:09;9.52;;;8.63;;
12774;SDS011;6451;42.630;23.382;2022-09-02T05:45:42;10.63;;;9.48;;
12774;SDS011;6451;42.630;23.382;2022-09-02T05:48:09;9.15;;;8.25;;
12774;SDS011;6451;42.630;23.382;2022-09-02T05:50:49;8.18;;;7.38;;
12774;SDS011;6451;42.630;23.382;2022-09-02T05:53:16;9.57;;;7.43;;
12774;SDS011;6451;42.630;23.382;2022-09-02T05:55:45;8.35;;;7.50;;
12774;SDS011;6451;42.630;23.382;2022-09-02T05:58:12;8.82;;;7.63;;
12774;SDS011;6451;42.630;23.382;2022-09-02T06:00:39;8.75;;;7.88;;
12774;SDS011;6451;42.630;23.382;2022-09-02T06:03:06;8.25;;;7.38;;
12774;SDS011;6451;42.630;23.382;2022-09-02T06:05:33;8.40;;;7.63;;
12774;SDS011;6451;42.630;23.382;2022-09-02T06:08:01;8.55;;;7.75;;
12774;SDS011;6451;42.630;23.382;2022-09-02T06:10:28;8.55;;;7.53;;
12774;SDS011;6451;42.630;23.382;2022-09-02T06:12:58;8.57;;;7.68;;
12774;SDS011;6451;42.630;23.382;2022-09-02T06:15:24;8.48;;;7.70;;
12774;SDS011;6451;42.630;23.382;2022-09-02T06:17:55;8.38;;;7.57;;
12774;SDS011;6451;42.630;23.382;2022-09-02T06:20:23;8.13;;;7.22;;
12774;SDS011;6451;42.630;23.382;2022-09-02T06:22:53;8.35;;;7.55;;
12774;SDS011;6451;42.630;23.382;2022-09-02T06:25:20;7.57;;;6.85;;
12774;SDS011;6451;42.630;23.382;2022-09-02T06:27:46;8.10;;;7.30;;
12774;SDS011;6451;42.630;23.382;2022-09-02T06:30:16;8.00;;;7.10;;
12774;SDS011;6451;42.630;23.382;2022-09-02T06:32:43;7.70;;;7.00;;
12774;SDS011;6451;42.630;23.382;2022-09-02T06:35:10;7.63;;;6.93;;
12774;SDS011;6451;42.630;23.382;2022-09-02T06:37:38;8.05;;;7.35;;
12774;SDS011;6451;42.630;23.382;2022-09-02T06:40:05;8.48;;;7.43;;
12774;SDS011;6451;42.630;23.382;2022-09-02T06:42:33;8.43;;;7.63;;
12774;SDS011;6451;42.630;23.382;2022-09-02T06:44:59;8.15;;;7.40;;
12774;SDS011;6451;42.630;23.382;2022-09-02T06:47:29;8.70;;;7.90;;
12774;SDS011;6451;42.630;23.382;2022-09-02T06:49:56;8.93;;;7.80;;
12774;SDS011;6451;42.630;23.382;2022-09-02T06:52:24;9.18;;;8.07;;
12774;SDS011;6451;42.630;23.382;2022-09-02T06:54:51;10.68;;;8.02;;
12774;SDS011;6451;42.630;23.382;2022-09-02T06:57:19;8.70;;;7.90;;
12774;SDS011;6451;42.630;23.382;2022-09-02T06:59:46;8.55;;;7.80;;
12774;SDS011;6451;42.630;23.382;2022-09-02T07:02:13;8.23;;;7.50;;
12774;SDS011;6451;42.630;23.382;2022-09-02T07:04:41;8.85;;;7.95;;
12774;SDS011;6451;42.630;23.382;2022-09-02T07:07:26;8.75;;;7.72;;
12774;SDS011;6451;42.630;23.382;2022-09-02T07:09:53;8.95;;;8.05;;
12774;SDS011;6451;42.630;23.382;2022-09-02T07:12:22;8.43;;;7.57;;
12774;SDS011;6451;42.630;23.382;2022-09-02T07:14:51;10.40;;;8.70;;
12774;SDS011;6451;42.630;23.382;2022-09-02T07:17:18;9.75;;;8.02;;
12774;SDS011;6451;42.630;23.382;2022-09-02T07:19:49;8.02;;;7.20;;
12774;SDS011;6451;42.630;23.382;2022-09-02T07:22:16;7.95;;;7.20;;
12774;SDS011;6451;42.630;23.382;2022-09-02T07:24:43;7.80;;;7.00;;
12774;SDS011;6451;42.630;23.382;2022-09-02T07:27:10;7.03;;;6.32;;
12774;SDS011;6451;42.630;23.382;2022-09-02T07:29:38;8.65;;;7.47;;
12774;SDS011;6451;42.630;23.382;2022-09-02T07:32:08;7.57;;;6.88;;
12774;SDS011;6451;42.630;23.382;2022-09-02T07:34:35;6.82;;;6.18;;
12774;SDS011;6451;42.630;23.382;2022-09-02T07:37:03;9.75;;;6.13;;
12774;SDS011;6451;42.630;23.382;2022-09-02T07:39:30;5.97;;;5.47;;
12774;SDS011;6451;42.630;23.382;2022-09-02T07:41:57;6.55;;;5.95;;
12774;SDS011;6451;42.630;23.382;2022-09-02T07:44:24;6.82;;;6.22;;
12774;SDS011;6451;42.630;23.382;2022-09-02T07:46:51;6.90;;;6.20;;
12774;SDS011;6451;42.630;23.382;2022-09-02T07:49:18;5.90;;;5.40;;
12774;SDS011;6451;42.630;23.382;2022-09-02T07:51:46;6.32;;;5.72;;
12774;SDS011;6451;42.630;23.382;2022-09-02T07:54:17;5.63;;;5.13;;
12774;SDS011;6451;42.630;23.382;2022-09-02T07:56:47;6.10;;;5.60;;
12774;SDS011;6451;42.630;23.382;2022-09-02T07:59:14;6.53;;;5.80;;
12774;SDS011;6451;42.630;23.382;2022-09-02T08:01:42;6.32;;;5.72;;
12774;SDS011;6451;42.630;23.382;2022-09-02T08:04:09;5.93;;;5.43;;
12774;SDS011;6451;42.630;23.382;2022-09-02T08:06:38;6.13;;;5.63;;
12774;SDS011;6451;42.630;23.382;2022-09-02T08:09:05;6.57;;;6.03;;
12774;SDS011;6451;42.630;23.382;2022-09-02T08:11:36;6.00;;;5.50;;
12774;SDS011;6451;42.630;23.382;2022-09-02T08:14:04;6.43;;;5.50;;
12774;SDS011;6451;42.630;23.382;2022-09-02T08:16:32;6.15;;;5.60;;
12774;SDS011;6451;42.630;23.382;2022-09-02T08:18:59;6.95;;;6.35;;
12774;SDS011;6451;42.630;23.382;2022-09-02T08:21:26;6.97;;;6.28;;
12774;SDS011;6451;42.630;23.382;2022-09-02T08:23:53;6.45;;;5.85;;
12774;SDS011;6451;42.630;23.382;2022-09-02T08:26:21;7.00;;;6.40;;
12774;SDS011;6451;42.630;23.382;2022-09-02T08:28:50;7.13;;;6.45;;
12774;SDS011;6451;42.630;23.382;2022-09-02T08:31:17;6.60;;;6.10;;
12774;SDS011;6451;42.630;23.382;2022-09-02T08:33:44;6.85;;;6.25;;
12774;SDS011;6451;42.630;23.382;2022-09-02T08:36:11;7.32;;;6.68;;
12774;SDS011;6451;42.630;23.382;2022-09-02T08:38:39;7.25;;;6.55;;
12774;SDS011;6451;42.630;23.382;2022-09-02T08:41:10;7.32;;;6.63;;
12774;SDS011;6451;42.630;23.382;2022-09-02T08:43:44;7.75;;;6.55;;
12774;SDS011;6451;42.630;23.382;2022-09-02T08:46:13;8.40;;;7.65;;
12774;SDS011;6451;42.630;23.382;2022-09-02T08:48:44;8.93;;;7.78;;
12774;SDS011;6451;42.630;23.382;2022-09-02T08:51:17;9.52;;;7.93;;
12774;SDS011;6451;42.630;23.382;2022-09-02T08:53:50;9.63;;;8.70;;
12774;SDS011;6451;42.630;23.382;2022-09-02T08:56:20;11.13;;;8.00;;
12774;SDS011;6451;42.630;23.382;2022-09-02T08:58:48;9.48;;;8.48;;
12774;SDS011;6451;42.630;23.382;2022-09-02T09:01:22;8.95;;;8.15;;
12774;SDS011;6451;42.630;23.382;2022-09-02T09:04:05;11.98;;;8.85;;
12774;SDS011;6451;42.630;23.382;2022-09-02T09:06:46;9.32;;;8.40;;
12774;SDS011;6451;42.630;23.382;2022-09-02T09:09:23;10.13;;;9.13;;
12774;SDS011;6451;42.630;23.382;2022-09-02T09:11:57;9.98;;;9.07;;
12774;SDS011;6451;42.630;23.382;2022-09-02T09:14:33;10.68;;;9.73;;
12774;SDS011;6451;42.630;23.382;2022-09-02T09:17:11;9.60;;;8.70;;
12774;SDS011;6451;42.630;23.382;2022-09-02T09:19:47;11.68;;;9.30;;
12774;SDS011;6451;42.630;23.382;2022-09-02T09:22:17;10.10;;;9.02;;
12774;SDS011;6451;42.630;23.382;2022-09-02T09:24:46;10.10;;;9.10;;
12774;SDS011;6451;42.630;23.382;2022-09-02T09:27:15;10.48;;;9.40;;
12774;SDS011;6451;42.630;23.382;2022-09-02T09:29:46;9.57;;;8.68;;
12774;SDS011;6451;42.630;23.382;2022-09-02T09:32:16;10.07;;;9.07;;
12774;SDS011;6451;42.630;23.382;2022-09-02T09:34:58;10.05;;;9.07;;
12774;SDS011;6451;42.630;23.382;2022-09-02T09:37:28;11.20;;;9.30;;
12774;SDS011;6451;42.630;23.382;2022-09-02T09:39:57;12.07;;;9.80;;
12774;SDS011;6451;42.630;23.382;2022-09-02T09:42:29;10.43;;;9.32;;
12774;SDS011;6451;42.630;23.382;2022-09-02T09:44:57;11.10;;;9.68;;
12774;SDS011;6451;42.630;23.382;2022-09-02T09:47:26;11.32;;;9.95;;
12774;SDS011;6451;42.630;23.382;2022-09-02T09:50:09;11.30;;;10.18;;
12774;SDS011;6451;42.630;23.382;2022-09-02T09:52:38;11.32;;;10.18;;
12774;SDS011;6451;42.630;23.382;2022-09-02T09:55:09;10.63;;;9.60;;
12774;SDS011;6451;42.630;23.382;2022-09-02T09:57:40;10.23;;;9.15;;
12774;SDS011;6451;42.630;23.382;2022-09-02T10:00:19;9.95;;;8.95;;
12774;SDS011;6451;42.630;23.382;2022-09-02T10:02:50;10.63;;;9.52;;
12774;SDS011;6451;42.630;23.382;2022-09-02T10:05:27;10.55;;;9.55;;
12774;SDS011;6451;42.630;23.382;2022-09-02T10:07:58;12.40;;;9.77;;
12774;SDS011;6451;42.630;23.382;2022-09-02T10:10:27;10.60;;;9.50;;
12774;SDS011;6451;42.630;23.382;2022-09-02T10:12:57;10.77;;;9.68;;
12774;SDS011;6451;42.630;23.382;2022-09-02T10:15:30;11.20;;;10.07;;
12774;SDS011;6451;42.630;23.382;2022-09-02T10:18:14;11.70;;;10.50;;
12774;SDS011;6451;42.630;23.382;2022-09-02T10:20:51;14.48;;;10.98;;
12774;SDS011;6451;42.630;23.382;2022-09-02T10:23:28;13.75;;;11.13;;
12774;SDS011;6451;42.630;23.382;2022-09-02T10:26:06;13.45;;;10.77;;
12774;SDS011;6451;42.630;23.382;2022-09-02T10:28:53;12.43;;;11.13;;
12774;SDS011;6451;42.630;23.382;2022-09-02T10:31:45;13.43;;;11.30;;
12774;SDS011;6451;42.630;23.382;2022-09-02T10:34:23;11.43;;;10.30;;
12774;SDS011;6451;42.630;23.382;2022-09-02T10:37:04;14.57;;;10.68;;
12774;SDS011;6451;42.630;23.382;2022-09-02T10:39:46;12.48;;;11.23;;
12774;SDS011;6451;42.630;23.382;2022-09-02T10:42:39;14.35;;;11.40;;
12774;SDS011;6451;42.630;23.382;2022-09-02T10:45:22;12.05;;;10.85;;
12774;SDS011;6451;42.630;23.382;2022-09-02T10:47:58;13.48;;;11.32;;
12774;SDS011;6451;42.630;23.382;2022-09-02T10:50:42;12.65;;;11.43;;
12774;SDS011;6451;42.630;23.382;2022-09-02T10:53:26;15.60;;;10.80;;
12774;SDS011;6451;42.630;23.382;2022-09-02T10:56:02;12.45;;;11.05;;
12774;SDS011;6451;42.630;23.382;2022-09-02T10:58:38;12.18;;;10.98;;
12774;SDS011;6451;42.630;23.382;2022-09-02T11:01:12;11.82;;;10.73;;
12774;SDS011;6451;42.630;23.382;2022-09-02T11:03:48;13.40;;;12.20;;
12774;SDS011;6451;42.630;23.382;2022-09-02T11:06:26;11.15;;;10.00;;
12774;SDS011;6451;42.630;23.382;2022-09-02T11:08:56;11.88;;;10.77;;
12774;SDS011;6451;42.630;23.382;2022-09-02T11:11:28;11.57;;;10.45;;
12774;SDS011;6451;42.630;23.382;2022-09-02T11:14:00;13.30;;;10.77;;
12774;SDS011;6451;42.630;23.382;2022-09-02T11:16:35;15.15;;;10.85;;
12774;SDS011;6451;42.630;23.382;2022-09-02T11:19:11;12.80;;;11.52;;
12774;SDS011;6451;42.630;23.382;2022-09-02T11:21:54;12.13;;;10.90;;
12774;SDS011;6451;42.630;23.382;2022-09-02T11:24:27;12.63;;;11.40;;
12774;SDS011;6451;42.630;23.382;2022-09-02T11:27:00;12.25;;;11.05;;
12774;SDS011;6451;42.630;23.382;2022-09-02T11:29:37;12.32;;;11.05;;
12774;SDS011;6451;42.630;23.382;2022-09-02T11:32:14;12.73;;;11.52;;
12774;SDS011;6451;42.630;23.382;2022-09-02T11:34:46;13.00;;;11.68;;
12774;SDS011;6451;42.630;23.382;2022-09-02T11:37:24;14.90;;;11.63;;
12774;SDS011;6451;42.630;23.382;2022-09-02T11:39:56;14.75;;;11.82;;
12774;SDS011;6451;42.630;23.382;2022-09-02T11:42:38;13.13;;;12.05;;
12774;SDS011;6451;42.630;23.382;2022-09-02T11:45:35;13.00;;;11.70;;
12774;SDS011;6451;42.630;23.382;2022-09-02T11:51:34;15.13;;;12.45;;
12774;SDS011;6451;42.630;23.382;2022-09-02T11:54:14;14.55;;;13.20;;
12774;SDS011;6451;42.630;23.382;2022-09-02T11:56:44;13.45;;;12.20;;
12774;SDS011;6451;42.630;23.382;2022-09-02T11:59:20;13.88;;;12.52;;
12774;SDS011;6451;42.630;23.382;2022-09-02T12:01:49;14.30;;;12.85;;
12774;SDS011;6451;42.630;23.382;2022-09-02T12:04:18;14.38;;;12.90;;
12774;SDS011;6451;42.630;23.382;2022-09-02T12:09:49;14.10;;;12.77;;
12774;SDS011;6451;42.630;23.382;2022-09-02T12:15:22;16.45;;;12.95;;
12774;SDS011;6451;42.630;23.382;2022-09-02T12:29:52;13.77;;;12.45;;
12774;SDS011;6451;42.630;23.382;2022-09-02T12:35:28;13.70;;;12.40;;
12774;SDS011;6451;42.630;23.382;2022-09-02T12:41:12;14.32;;;12.93;;
12774;SDS011;6451;42.630;23.382;2022-09-02T12:43:51;15.52;;;14.02;;
12774;SDS011;6451;42.630;23.382;2022-09-02T12:46:47;14.50;;;13.20;;
12774;SDS011;6451;42.630;23.382;2022-09-02T12:49:35;15.10;;;13.45;;
12774;SDS011;6451;42.630;23.382;2022-09-02T12:52:07;14.88;;;13.25;;
12774;SDS011;6451;42.630;23.382;2022-09-02T12:54:40;14.60;;;13.13;;
12774;SDS011;6451;42.630;23.382;2022-09-02T12:57:11;14.93;;;13.40;;
12774;SDS011;6451;42.630;23.382;2022-09-02T12:59:40;14.48;;;13.10;;
12774;SDS011;6451;42.630;23.382;2022-09-02T13:02:25;15.18;;;13.70;;
12774;SDS011;6451;42.630;23.382;2022-09-02T13:05:09;15.25;;;13.70;;
12774;SDS011;6451;42.630;23.382;2022-09-02T13:10:55;15.38;;;13.75;;
12774;SDS011;6451;42.630;23.382;2022-09-02T13:14:00;16.33;;;14.48;;
12774;SDS011;6451;42.630;23.382;2022-09-02T13:16:57;14.95;;;13.32;;
12774;SDS011;6451;42.630;23.382;2022-09-02T13:19:50;14.65;;;13.25;;
12774;SDS011;6451;42.630;23.382;2022-09-02T13:22:49;28.25;;;25.52;;
12774;SDS011;6451;42.630;23.382;2022-09-02T13:25:40;19.15;;;17.20;;
12774;SDS011;6451;42.630;23.382;2022-09-02T13:28:32;20.58;;;18.05;;
12774;SDS011;6451;42.630;23.382;2022-09-02T13:31:21;20.10;;;18.08;;
12774;SDS011;6451;42.630;23.382;2022-09-02T13:33:55;19.70;;;17.45;;
12774;SDS011;6451;42.630;23.382;2022-09-02T13:36:27;21.90;;;19.70;;
12774;SDS011;6451;42.630;23.382;2022-09-02T13:39:08;21.08;;;18.95;;
12774;SDS011;6451;42.630;23.382;2022-09-02T13:41:36;20.40;;;18.40;;
12774;SDS011;6451;42.630;23.382;2022-09-02T13:44:07;20.52;;;18.15;;
12774;SDS011;6451;42.630;23.382;2022-09-02T13:46:41;18.63;;;16.77;;
12774;SDS011;6451;42.630;23.382;2022-09-02T13:49:16;17.73;;;16.13;;
12774;SDS011;6451;42.630;23.382;2022-09-02T13:51:50;17.55;;;15.68;;
12774;SDS011;6451;42.630;23.382;2022-09-02T13:57:05;15.38;;;13.55;;
12774;SDS011;6451;42.630;23.382;2022-09-02T13:59:36;20.17;;;16.08;;
12774;SDS011;6451;42.630;23.382;2022-09-02T14:05:00;21.27;;;16.80;;
12774;SDS011;6451;42.630;23.382;2022-09-02T14:07:32;17.40;;;15.40;;
12774;SDS011;6451;42.630;23.382;2022-09-02T14:10:04;19.73;;;17.60;;
12774;SDS011;6451;42.630;23.382;2022-09-02T14:12:35;24.33;;;19.40;;
12774;SDS011;6451;42.630;23.382;2022-09-02T14:15:05;20.67;;;18.50;;
12774;SDS011;6451;42.630;23.382;2022-09-02T14:17:33;18.85;;;16.90;;
12774;SDS011;6451;42.630;23.382;2022-09-02T14:20:07;20.23;;;18.23;;
12774;SDS011;6451;42.630;23.382;2022-09-02T14:22:38;23.13;;;18.98;;
12774;SDS011;6451;42.630;23.382;2022-09-02T14:25:11;21.30;;;18.85;;
12774;SDS011;6451;42.630;23.382;2022-09-02T14:27:39;20.95;;;18.45;;
12774;SDS011;6451;42.630;23.382;2022-09-02T14:30:22;18.50;;;16.70;;
12774;SDS011;6451;42.630;23.382;2022-09-02T14:35:53;16.45;;;14.68;;
12774;SDS011;6451;42.630;23.382;2022-09-02T14:38:23;13.90;;;12.50;;
12774;SDS011;6451;42.630;23.382;2022-09-02T14:40:57;16.45;;;12.85;;
12774;SDS011;6451;42.630;23.382;2022-09-02T14:43:25;17.13;;;13.85;;
12774;SDS011;6451;42.630;23.382;2022-09-02T14:46:02;12.80;;;11.50;;
12774;SDS011;6451;42.630;23.382;2022-09-02T14:48:33;15.73;;;12.93;;
12774;SDS011;6451;42.630;23.382;2022-09-02T14:51:04;15.55;;;14.05;;
12774;SDS011;6451;42.630;23.382;2022-09-02T14:53:34;14.95;;;13.55;;
12774;SDS011;6451;42.630;23.382;2022-09-02T14:56:03;17.58;;;14.93;;
12774;SDS011;6451;42.630;23.382;2022-09-02T14:58:31;16.42;;;14.82;;
12774;SDS011;6451;42.630;23.382;2022-09-02T15:00:58;18.20;;;16.30;;
12774;SDS011;6451;42.630;23.382;2022-09-02T15:03:27;16.90;;;14.98;;
12774;SDS011;6451;42.630;23.382;2022-09-02T15:05:55;18.20;;;16.38;;
12774;SDS011;6451;42.630;23.382;2022-09-02T15:08:22;19.20;;;17.17;;
12774;SDS011;6451;42.630;23.382;2022-09-02T15:10:50;18.63;;;16.75;;
12774;SDS011;6451;42.630;23.382;2022-09-02T15:13:23;22.45;;;17.90;;
12774;SDS011;6451;42.630;23.382;2022-09-02T15:15:53;19.77;;;17.58;;
12774;SDS011;6451;42.630;23.382;2022-09-02T15:18:20;21.27;;;18.90;;
12774;SDS011;6451;42.630;23.382;2022-09-02T15:20:47;18.92;;;16.92;;
12774;SDS011;6451;42.630;23.382;2022-09-02T15:23:14;19.63;;;17.63;;
12774;SDS011;6451;42.630;23.382;2022-09-02T15:25:43;19.50;;;17.20;;
12774;SDS011;6451;42.630;23.382;2022-09-02T15:28:11;20.42;;;17.85;;
12774;SDS011;6451;42.630;23.382;2022-09-02T15:30:38;19.25;;;17.23;;
12774;SDS011;6451;42.630;23.382;2022-09-02T15:33:05;19.88;;;17.67;;